Terminal Aerodrome Forecast
Issued by NWS

Home | Current Version | Previous Version | Graphics & Text | Print | Product List | Glossary On
Versions: 1 2 3 4 5 6 7 8 9 10 11 12 13 14 15 16 17
160
FTUS43 KGRB 060856 AAA
TAFATW
TAF AMD
KATW 060856Z 0609/0706 22008KT P6SM SCT018 BKN030
      TEMPO 0609/0613 5SM -SN BR BKN018
     FM061300 24008KT P6SM BKN020
     FM070100 20008KT P6SM SCT025 OVC040=

USA.gov is the U.S. government's official web portal to all federal, state and local government web resources and services.